Estación de Las Viñas

Ultimos registro cada 15 minutos 80
Estación Fecha / Hora Temperatura Humedad Lluvia Velocidad Dirección Radiación Presion
80 Las Viñas 05-05-2026 19:45 13,8 77 0,6 0 353 0 1011,9
79 Las Viñas 05-05-2026 19:30 13,8 77 0,2 0 353 0 1012,4
78 Las Viñas 05-05-2026 19:15 13,9 77 1,4 0 353 0 1012,1
77 Las Viñas 05-05-2026 19:00 13,9 78 1 0 351 0 1012,6
76 Las Viñas 05-05-2026 18:45 13,9 79 0,4 0 358 0 1012,2
75 Las Viñas 05-05-2026 18:30 14 80 1 0 330 0 1012,4
74 Las Viñas 05-05-2026 18:15 14,1 80 0 0 351 0 1012,3
73 Las Viñas 05-05-2026 18:00 14,1 81 0 0 8 0 1011,9
72 Las Viñas 05-05-2026 17:45 14,2 82 0 0 355 0 1012,1
71 Las Viñas 05-05-2026 17:30 14,2 83 0,2 0 1 5 1012,2
70 Las Viñas 05-05-2026 17:15 14,3 84 0,2 0 350 25 1012,2
69 Las Viñas 05-05-2026 17:00 14,3 86 0,4 0 10 12 1012,6
68 Las Viñas 05-05-2026 16:45 14,5 87 0 0 3 14 1012,7
67 Las Viñas 05-05-2026 16:30 14,9 88 0,2 0 359 16 1012,6
66 Las Viñas 05-05-2026 16:15 15,3 88 0 0 5 44 1012,4
65 Las Viñas 05-05-2026 16:00 15,4 88 0 0 10 21 1012,3
64 Las Viñas 05-05-2026 15:45 15,5 88 0 0 350 25 1012,1
63 Las Viñas 05-05-2026 15:30 15,6 88 0 0 358 32 1012,2
62 Las Viñas 05-05-2026 15:15 15,6 88 0 0 357 58 1012,1
61 Las Viñas 05-05-2026 15:00 15,6 88 0 0,4 14 90 1012,2
60 Las Viñas 05-05-2026 14:45 15,6 88 0 0 27 97 1012,5
59 Las Viñas 05-05-2026 14:30 15,5 87 0 0 312 121 1012
58 Las Viñas 05-05-2026 14:15 15,5 88 0 0 4 90 1011,7
57 Las Viñas 05-05-2026 14:00 15,4 87 0 0 360 127 1012,1
56 Las Viñas 05-05-2026 13:45 15,2 87 0 0 335 174 1012,2
55 Las Viñas 05-05-2026 13:30 15,1 87 0 0 7 134 1012,1
54 Las Viñas 05-05-2026 13:15 15 83 0 0,9 19 181 1012,1
53 Las Viñas 05-05-2026 13:00 14,7 78 0 0 46 255 1012,2
52 Las Viñas 05-05-2026 12:45 14,5 74 0 0 14 165 1012,5
51 Las Viñas 05-05-2026 12:30 14,2 71 0 0 20 334 1012,5
50 Las Viñas 05-05-2026 12:15 13,7 71 0 0 46 246 1012,2
49 Las Viñas 05-05-2026 12:00 13,3 71 0 0 14 135 1012,8
48 Las Viñas 05-05-2026 11:45 13,1 72 0 0 354 114 1012,8
47 Las Viñas 05-05-2026 11:30 12,8 72 0 0 39 128 1013
46 Las Viñas 05-05-2026 11:15 12,8 72 0 0 295 93 1013,6
45 Las Viñas 05-05-2026 11:00 12,8 72 0 0 232 98 1013,9
44 Las Viñas 05-05-2026 10:45 12,8 72 0 0 327 81 1014,1
43 Las Viñas 05-05-2026 10:30 12,8 72 0 0 212 121 1013,7
42 Las Viñas 05-05-2026 10:15 12,6 72 0 0 196 125 1013,4
41 Las Viñas 05-05-2026 10:00 12,4 72 0 0 197 98 1013,9
40 Las Viñas 05-05-2026 09:45 12,1 72 0 0 341 83 1013,6
39 Las Viñas 05-05-2026 09:30 11,9 72 0 0 341 56 1013,5
38 Las Viñas 05-05-2026 09:15 11,8 73 0 0 341 33 1013,3
37 Las Viñas 05-05-2026 09:00 11,7 73 0 0 33 32 1013,1
36 Las Viñas 05-05-2026 08:45 11,6 73 0 0 33 26 1013,6
35 Las Viñas 05-05-2026 08:30 11,6 73 0 0 33 18 1013,6
34 Las Viñas 05-05-2026 08:15 11,6 73 0 0 352 9 1014,7
33 Las Viñas 05-05-2026 08:00 11,5 73 0 0 16 7 1013,9
32 Las Viñas 05-05-2026 07:45 11,6 73 0 0 16 0 1014,2
31 Las Viñas 05-05-2026 07:30 11,5 73 0 0 16 0 1013,7
30 Las Viñas 05-05-2026 07:15 11,4 73 0 0 324 0 1013,8
29 Las Viñas 05-05-2026 07:00 11,3 74 0 0 324 0 1014,6
28 Las Viñas 05-05-2026 06:45 11,3 74 0 0 324 0 1015
27 Las Viñas 05-05-2026 06:30 11,4 74 0 0 324 0 1015
26 Las Viñas 05-05-2026 06:15 11,4 74 0 0 324 0 1015,3
25 Las Viñas 05-05-2026 06:00 11,4 74 0 0 324 0 1015,5
24 Las Viñas 05-05-2026 05:45 11,5 74 0 0 324 0 1015,4
23 Las Viñas 05-05-2026 05:30 11,6 74 0 0 324 0 1015,4
22 Las Viñas 05-05-2026 05:15 11,6 74 0 0 324 0 1015,6
21 Las Viñas 05-05-2026 05:00 11,4 74 0 0 14 0 1015,1
20 Las Viñas 05-05-2026 04:45 11,4 74 0 0 335 0 1015,2
19 Las Viñas 05-05-2026 04:30 11,2 75 0,4 0 335 0 1015,4
18 Las Viñas 05-05-2026 04:15 11,3 75 0 0 335 0 1015,4
17 Las Viñas 05-05-2026 04:00 11,3 75 0,2 0 335 0 1015,2
16 Las Viñas 05-05-2026 03:45 11,4 75 0,2 0 335 0 1015,1
15 Las Viñas 05-05-2026 03:30 11,4 75 0 0 335 0 1015,3
14 Las Viñas 05-05-2026 03:15 11,4 75 0 0 335 0 1015,3
13 Las Viñas 05-05-2026 03:00 11,5 75 0 0 335 0 1014,8
12 Las Viñas 05-05-2026 02:45 11,5 76 0 0 335 0 1014,5
11 Las Viñas 05-05-2026 02:30 11,6 75 0 0 335 0 1015,1
10 Las Viñas 05-05-2026 02:15 11,6 76 0 0 335 0 1015,3
9 Las Viñas 05-05-2026 02:00 11,6 76 0 0 335 0 1015,2
8 Las Viñas 05-05-2026 01:45 11,7 76 0 0 335 0 1015,3
7 Las Viñas 05-05-2026 01:30 11,8 76 0,2 0 335 0 1015,5
6 Las Viñas 05-05-2026 01:15 11,8 76 0 0 335 0 1015,3
5 Las Viñas 05-05-2026 01:00 11,8 76 0 0 335 0 1015,1
4 Las Viñas 05-05-2026 00:45 11,8 76 0 0 335 0 1015,4
3 Las Viñas 05-05-2026 00:30 11,7 77 0 0 335 0 1015,4
2 Las Viñas 05-05-2026 00:15 11,6 77 0 0 335 0 1015,6
1 Las Viñas 05-05-2026 00:00 11,6 78 0 0 335 0 1016,2